createdAt,value
2022-09-13T00:02:14.035Z,18.17
2022-09-13T00:04:41.146Z,18.19
2022-09-13T00:07:07.707Z,18.18
2022-09-13T00:09:34.271Z,18.24
2022-09-13T00:12:00.920Z,18.31
2022-09-13T00:14:27.598Z,18.16
2022-09-13T00:16:54.242Z,18.21
2022-09-13T00:19:20.783Z,18.22
2022-09-13T00:21:48.570Z,18.17
2022-09-13T00:24:15.099Z,18.14
2022-09-13T00:26:41.651Z,18.16
2022-09-13T00:29:08.234Z,18.32
2022-09-13T00:31:34.918Z,18.19
2022-09-13T00:34:01.801Z,18.28
2022-09-13T00:36:29.081Z,18.40
2022-09-13T00:38:55.711Z,18.49
2022-09-13T00:41:22.354Z,18.66
2022-09-13T00:44:00.707Z,18.58
2022-09-13T00:46:48.612Z,18.54
2022-09-13T00:49:29.086Z,18.63
2022-09-13T00:51:59.920Z,18.49
2022-09-13T00:54:33.246Z,18.44
2022-09-13T00:57:04.544Z,18.62
2022-09-13T00:59:40.778Z,18.54
2022-09-13T01:02:07.719Z,18.50
2022-09-13T01:04:37.000Z,18.74
2022-09-13T01:07:08.603Z,18.55
2022-09-13T01:09:39.976Z,18.75
2022-09-13T01:12:21.550Z,18.68
2022-09-13T01:14:49.434Z,18.77
2022-09-13T01:17:16.142Z,18.57
2022-09-13T01:19:42.810Z,18.69
2022-09-13T01:22:32.015Z,18.78
2022-09-13T01:25:13.476Z,18.72
2022-09-13T01:27:51.855Z,18.78
2022-09-13T01:30:28.745Z,18.91
2022-09-13T01:33:05.957Z,18.87
2022-09-13T01:36:06.900Z,18.91
2022-09-13T01:38:42.313Z,18.94
2022-09-13T01:41:34.148Z,18.78
2022-09-13T01:44:42.887Z,18.84
2022-09-13T01:47:27.772Z,18.88
2022-09-13T01:50:09.050Z,18.87
2022-09-13T01:53:00.757Z,18.87
2022-09-13T01:55:48.518Z,18.88
2022-09-13T01:58:28.576Z,18.77
2022-09-13T02:01:08.377Z,18.81
2022-09-13T02:03:44.526Z,18.76
2022-09-13T02:06:15.973Z,18.15
2022-09-13T02:08:46.573Z,18.11
2022-09-13T02:11:16.354Z,18.44
2022-09-13T02:13:49.504Z,18.37
2022-09-13T02:16:41.624Z,18.37
2022-09-13T02:19:20.105Z,18.32
2022-09-13T02:21:52.341Z,18.10
2022-09-13T02:24:28.075Z,18.10
2022-09-13T02:26:56.394Z,18.08
2022-09-13T02:29:28.881Z,18.29
2022-09-13T02:32:06.562Z,18.41
2022-09-13T02:34:39.155Z,18.49
2022-09-13T02:37:09.069Z,18.56
2022-09-13T02:39:42.106Z,18.53
2022-09-13T02:42:17.167Z,18.58
2022-09-13T02:44:48.053Z,18.43
2022-09-13T02:48:00.108Z,18.30
2022-09-13T02:50:59.808Z,18.54
2022-09-13T02:53:42.032Z,18.62
2022-09-13T02:56:11.354Z,18.40
2022-09-13T02:58:56.912Z,18.55
2022-09-13T03:01:24.823Z,18.67
2022-09-13T03:03:54.292Z,18.73
2022-09-13T03:06:25.292Z,18.48
2022-09-13T03:08:53.364Z,18.80
2022-09-13T03:11:49.207Z,18.86
2022-09-13T03:14:46.472Z,18.48
2022-09-13T03:17:27.736Z,18.56
2022-09-13T03:20:12.749Z,18.59
2022-09-13T03:23:20.199Z,18.56
2022-09-13T03:26:01.779Z,18.27
2022-09-13T03:28:55.000Z,18.33
2022-09-13T03:31:49.295Z,18.40
2022-09-13T03:34:44.367Z,18.22
2022-09-13T03:37:25.348Z,18.01
2022-09-13T03:40:00.503Z,17.91
2022-09-13T03:42:48.170Z,17.83
2022-09-13T03:45:19.728Z,17.74
2022-09-13T03:47:49.297Z,18.04
2022-09-13T03:50:22.439Z,18.08
2022-09-13T03:52:57.212Z,18.01
2022-09-13T03:55:23.991Z,18.07
2022-09-13T03:57:50.496Z,18.17
2022-09-13T04:00:18.462Z,18.18
2022-09-13T04:02:45.079Z,18.14
2022-09-13T04:05:11.623Z,18.13
2022-09-13T04:07:38.171Z,18.15
2022-09-13T04:10:05.092Z,18.00
2022-09-13T04:12:31.911Z,18.07
2022-09-13T04:14:58.461Z,17.97
2022-09-13T04:17:25.093Z,17.92
2022-09-13T04:19:51.600Z,17.83
2022-09-13T04:22:18.154Z,17.92
2022-09-13T04:24:44.929Z,17.89
2022-09-13T04:27:12.555Z,17.76
2022-09-13T04:29:39.104Z,17.67
2022-09-13T04:32:05.873Z,17.59
2022-09-13T04:34:32.405Z,17.64
2022-09-13T04:36:58.982Z,17.45
2022-09-13T04:39:25.746Z,17.51
2022-09-13T04:41:54.753Z,17.36
2022-09-13T04:44:23.212Z,17.30
2022-09-13T04:46:49.971Z,17.49
2022-09-13T04:49:18.172Z,17.55
2022-09-13T04:51:44.668Z,17.65
2022-09-13T04:54:15.310Z,17.49
2022-09-13T04:56:42.640Z,17.34
2022-09-13T04:59:10.802Z,17.45
2022-09-13T05:01:38.077Z,17.52
2022-09-13T05:04:05.854Z,17.44
2022-09-13T05:06:32.361Z,17.44
2022-09-13T05:08:59.063Z,17.25
2022-09-13T05:11:27.756Z,17.45
2022-09-13T05:13:57.696Z,17.48
2022-09-13T05:16:26.470Z,17.45
2022-09-13T05:18:53.698Z,17.56
2022-09-13T05:21:21.560Z,17.64
2022-09-13T05:23:52.434Z,17.57
2022-09-13T05:26:19.196Z,17.63
2022-09-13T05:28:45.860Z,17.68
2022-09-13T05:31:21.552Z,17.80
2022-09-13T05:33:53.673Z,17.94
2022-09-13T05:36:20.278Z,17.75
2022-09-13T05:38:46.944Z,17.46
2022-09-13T05:41:13.600Z,17.62
2022-09-13T05:43:40.196Z,17.88
2022-09-13T05:46:18.083Z,18.05
2022-09-13T05:48:44.786Z,17.99
2022-09-13T05:51:14.388Z,18.04
2022-09-13T05:53:43.486Z,18.05
2022-09-13T05:56:24.415Z,18.28
2022-09-13T05:58:52.372Z,18.19
2022-09-13T06:01:25.194Z,18.19
2022-09-13T06:03:53.754Z,18.07
2022-09-13T06:06:20.927Z,18.11
2022-09-13T06:08:48.705Z,18.20
2022-09-13T06:11:15.626Z,18.40
2022-09-13T06:13:45.436Z,18.43
2022-09-13T06:16:13.958Z,18.36
2022-09-13T06:18:40.968Z,18.44
2022-09-13T06:21:17.709Z,18.59
2022-09-13T06:23:51.071Z,18.82
2022-09-13T06:26:20.421Z,18.80
2022-09-13T06:28:49.199Z,18.75
2022-09-13T06:31:18.072Z,18.81
2022-09-13T06:33:45.289Z,18.98
2022-09-13T06:36:14.695Z,19.24
2022-09-13T06:38:41.952Z,19.37
2022-09-13T06:41:14.038Z,19.56
2022-09-13T06:43:41.849Z,19.82
2022-09-13T06:46:10.491Z,19.85
2022-09-13T06:48:39.716Z,19.85
2022-09-13T06:51:09.625Z,20.06
2022-09-13T06:53:37.520Z,19.99
2022-09-13T06:56:05.459Z,19.78
2022-09-13T06:58:33.181Z,19.71
2022-09-13T07:01:12.780Z,20.08
2022-09-13T07:03:47.947Z,20.06
2022-09-13T07:06:19.119Z,20.18
2022-09-13T07:08:49.479Z,20.18
2022-09-13T07:11:20.723Z,20.17
2022-09-13T07:13:52.123Z,20.34
2022-09-13T07:16:20.757Z,20.55
2022-09-13T07:18:54.619Z,20.94
2022-09-13T07:21:22.414Z,20.93
2022-09-13T07:23:49.276Z,20.76
2022-09-13T07:26:16.333Z,20.70
2022-09-13T07:28:45.346Z,20.87
2022-09-13T07:31:20.832Z,20.77
2022-09-13T07:33:52.934Z,20.66
2022-09-13T07:36:19.572Z,20.71
2022-09-13T07:38:46.172Z,20.64
2022-09-13T07:41:17.514Z,20.74
2022-09-13T07:43:44.751Z,20.74
2022-09-13T07:46:14.694Z,20.93
2022-09-13T07:48:43.004Z,21.16
2022-09-13T07:51:18.663Z,21.45
2022-09-13T07:53:45.980Z,21.38
2022-09-13T07:56:15.202Z,21.26
2022-09-13T07:58:43.933Z,21.20
2022-09-13T08:01:19.621Z,21.30
2022-09-13T08:03:54.343Z,21.28
2022-09-13T08:06:21.621Z,21.10
2022-09-13T08:08:48.566Z,21.18
2022-09-13T08:11:23.910Z,21.34
2022-09-13T08:13:52.599Z,21.26
2022-09-13T08:16:21.252Z,21.27
2022-09-13T08:18:50.280Z,21.22
2022-09-13T08:21:17.780Z,21.61
2022-09-13T08:23:45.033Z,22.06
2022-09-13T08:26:12.205Z,21.89
2022-09-13T08:28:40.827Z,22.02
2022-09-13T08:31:13.906Z,21.73
2022-09-13T08:33:47.431Z,21.61
2022-09-13T08:36:15.642Z,22.06
2022-09-13T08:38:50.223Z,21.82
2022-09-13T08:41:42.369Z,21.75
2022-09-13T08:44:30.191Z,21.48
2022-09-13T08:47:06.497Z,21.18
2022-09-13T08:49:45.128Z,21.14
2022-09-13T08:52:32.999Z,21.33
2022-09-13T08:55:06.942Z,21.71
2022-09-13T08:57:44.536Z,21.68
2022-09-13T09:00:32.996Z,21.73
2022-09-13T09:03:18.161Z,21.42
2022-09-13T09:05:50.308Z,21.81
2022-09-13T09:08:43.186Z,22.13
2022-09-13T09:11:36.190Z,22.44
2022-09-13T09:14:25.875Z,22.02
2022-09-13T09:16:57.366Z,21.52
2022-09-13T09:20:16.821Z,21.82
2022-09-13T09:22:45.077Z,21.65
2022-09-13T09:25:12.618Z,21.94
2022-09-13T09:27:39.213Z,22.07
2022-09-13T09:30:06.886Z,22.32
2022-09-13T09:32:34.000Z,21.89
2022-09-13T09:35:31.321Z,22.16
2022-09-13T09:38:03.708Z,21.77
2022-09-13T09:40:33.874Z,22.04
2022-09-13T09:43:01.799Z,21.76
2022-09-13T09:45:32.249Z,22.11
2022-09-13T09:48:05.114Z,21.92
2022-09-13T09:50:37.044Z,22.20
2022-09-13T09:53:18.654Z,22.78
2022-09-13T09:55:57.545Z,22.86
2022-09-13T09:58:45.148Z,23.34
2022-09-13T10:01:27.545Z,23.21
2022-09-13T10:04:08.686Z,23.40
2022-09-13T10:06:37.645Z,23.57
2022-09-13T10:09:05.981Z,22.64
2022-09-13T10:11:42.896Z,22.78
2022-09-13T10:14:28.822Z,23.22
2022-09-13T10:17:04.979Z,23.59
2022-09-13T10:19:32.442Z,22.79
2022-09-13T10:22:05.813Z,22.82
2022-09-13T10:24:32.914Z,22.89
2022-09-13T10:27:00.177Z,22.62
2022-09-13T10:29:28.601Z,22.25
2022-09-13T10:31:57.884Z,22.89
2022-09-13T10:34:32.517Z,22.96
2022-09-13T10:37:20.769Z,22.72
2022-09-13T10:40:09.169Z,23.37
2022-09-13T10:42:36.409Z,22.60
2022-09-13T10:45:19.410Z,22.45
2022-09-13T10:47:49.815Z,22.59
2022-09-13T10:50:26.589Z,23.31
2022-09-13T10:52:57.741Z,23.68
2022-09-13T10:55:35.549Z,23.75
2022-09-13T10:58:01.999Z,23.19
2022-09-13T11:00:32.499Z,23.09
2022-09-13T11:03:14.098Z,23.23
2022-09-13T11:05:59.580Z,23.07
2022-09-13T11:08:49.549Z,23.15
2022-09-13T11:11:30.229Z,23.37
2022-09-13T11:15:02.548Z,23.23
2022-09-13T11:17:55.304Z,23.25
2022-09-13T11:20:40.170Z,22.50
2022-09-13T11:23:37.564Z,22.73
2022-09-13T11:26:30.034Z,23.46
2022-09-13T11:29:19.934Z,23.42
2022-09-13T11:31:59.385Z,23.41
2022-09-13T11:34:37.876Z,23.60
2022-09-13T11:37:55.998Z,23.66
2022-09-13T11:40:51.049Z,22.99
2022-09-13T11:43:42.102Z,23.45
2022-09-13T11:46:17.979Z,22.82
2022-09-13T11:49:27.320Z,22.72
2022-09-13T11:52:02.553Z,23.01
2022-09-13T11:54:51.118Z,23.40
2022-09-13T11:57:25.183Z,23.41
2022-09-13T11:59:57.679Z,24.03
2022-09-13T12:02:37.266Z,23.21
2022-09-13T12:05:24.334Z,23.31
2022-09-13T12:08:10.000Z,23.80
2022-09-13T12:10:48.918Z,23.73
2022-09-13T12:13:29.603Z,23.81
2022-09-13T12:16:06.963Z,23.55
2022-09-13T12:18:58.286Z,23.74
2022-09-13T12:21:31.064Z,23.83
2022-09-13T12:24:00.707Z,23.68
2022-09-13T12:26:31.451Z,23.19
2022-09-13T12:29:02.804Z,23.66
2022-09-13T12:31:31.366Z,23.68
2022-09-13T12:33:59.310Z,24.09
2022-09-13T12:36:47.428Z,23.83
2022-09-13T12:39:24.072Z,24.07
2022-09-13T12:42:09.195Z,23.90
2022-09-13T12:44:46.078Z,23.78
2022-09-13T12:47:45.102Z,23.71
2022-09-13T12:50:44.244Z,23.25
2022-09-13T12:53:29.871Z,23.42
2022-09-13T12:56:22.740Z,23.42
2022-09-13T12:59:03.686Z,23.61
2022-09-13T13:01:32.552Z,24.09
2022-09-13T13:04:10.311Z,23.61
2022-09-13T13:06:52.031Z,23.47
2022-09-13T13:09:29.089Z,23.47
2022-09-13T13:11:58.524Z,24.02
2022-09-13T13:14:31.335Z,23.68
2022-09-13T13:17:36.215Z,23.50
2022-09-13T13:20:41.035Z,23.89
2022-09-13T13:23:37.331Z,24.39
2022-09-13T13:26:11.736Z,24.15
2022-09-13T13:28:52.099Z,24.19
2022-09-13T13:31:24.811Z,23.60
2022-09-13T13:34:01.495Z,23.57
2022-09-13T13:36:33.642Z,23.48
2022-09-13T13:39:01.758Z,23.77
2022-09-13T13:41:34.170Z,23.62
2022-09-13T13:44:02.218Z,23.52
2022-09-13T13:46:33.125Z,23.53
2022-09-13T13:49:31.708Z,23.47
2022-09-13T13:52:09.946Z,23.82
2022-09-13T13:54:42.752Z,23.28
2022-09-13T13:57:27.557Z,23.49
2022-09-13T14:00:16.086Z,23.33
2022-09-13T14:02:50.215Z,23.38
2022-09-13T14:05:29.152Z,23.32
2022-09-13T14:08:14.277Z,23.39
2022-09-13T14:10:45.522Z,23.63
2022-09-13T14:13:32.490Z,23.39
2022-09-13T14:16:11.403Z,23.57
2022-09-13T14:18:46.135Z,23.46
2022-09-13T14:21:29.943Z,23.35
2022-09-13T14:24:23.894Z,23.66
2022-09-13T14:26:57.922Z,23.62
2022-09-13T14:29:26.295Z,23.36
2022-09-13T14:31:55.475Z,23.15
2022-09-13T14:34:30.314Z,22.93
2022-09-13T14:37:00.083Z,22.71
2022-09-13T14:39:27.633Z,22.68
2022-09-13T14:42:16.636Z,22.94
2022-09-13T14:44:47.271Z,22.74
2022-09-13T14:47:16.525Z,22.74
2022-09-13T14:49:49.324Z,22.80
2022-09-13T14:52:34.268Z,23.09
2022-09-13T14:55:06.866Z,22.92
2022-09-13T14:57:39.118Z,23.02
2022-09-13T15:00:14.671Z,22.89
2022-09-13T15:02:51.149Z,22.70
2022-09-13T15:05:20.604Z,22.82
2022-09-13T15:07:47.538Z,22.36
2022-09-13T15:10:42.324Z,22.43
2022-09-13T15:13:10.852Z,22.49
2022-09-13T15:15:41.746Z,22.31
2022-09-13T15:18:20.428Z,22.53
2022-09-13T15:20:51.776Z,22.32
2022-09-13T15:23:26.332Z,22.24
2022-09-13T15:26:01.751Z,22.45
2022-09-13T15:28:48.713Z,22.24
2022-09-13T15:31:22.286Z,22.23
2022-09-13T15:33:49.826Z,22.11
2022-09-13T15:36:28.356Z,22.25
2022-09-13T15:39:20.251Z,21.93
2022-09-13T15:41:52.684Z,21.68
2022-09-13T15:44:19.589Z,21.86
2022-09-13T15:46:54.828Z,21.88
2022-09-13T15:49:24.662Z,21.92
2022-09-13T15:52:04.305Z,21.63
2022-09-13T15:54:34.271Z,21.80
2022-09-13T15:57:01.111Z,21.82
2022-09-13T15:59:27.780Z,21.77
2022-09-13T16:01:55.946Z,21.80
2022-09-13T16:04:22.858Z,21.91
2022-09-13T16:06:49.703Z,21.99
2022-09-13T16:09:21.596Z,22.12
2022-09-13T16:11:49.470Z,21.96
2022-09-13T16:14:17.095Z,21.45
2022-09-13T16:16:44.517Z,21.49
2022-09-13T16:19:16.753Z,21.36
2022-09-13T16:21:43.914Z,21.30
2022-09-13T16:24:10.767Z,21.26
2022-09-13T16:26:38.111Z,21.31
2022-09-13T16:29:04.857Z,21.36
2022-09-13T16:31:31.691Z,21.16
2022-09-13T16:33:58.463Z,21.06
2022-09-13T16:36:27.630Z,20.92
2022-09-13T16:38:55.195Z,21.01
2022-09-13T16:41:22.544Z,20.72
2022-09-13T16:43:49.373Z,20.69
2022-09-13T16:46:16.540Z,20.70
2022-09-13T16:48:43.535Z,20.44
2022-09-13T16:51:12.686Z,20.50
2022-09-13T16:53:42.005Z,20.44
2022-09-13T16:56:11.633Z,20.37
2022-09-13T16:58:39.555Z,20.56
2022-09-13T17:01:07.827Z,20.40
2022-09-13T17:03:36.317Z,20.47
2022-09-13T17:06:08.498Z,20.50
2022-09-13T17:08:36.756Z,20.61
2022-09-13T17:11:09.393Z,20.43
2022-09-13T17:13:37.775Z,20.16
2022-09-13T17:16:06.710Z,20.01
2022-09-13T17:18:34.206Z,20.05
2022-09-13T17:21:01.012Z,19.75
2022-09-13T17:23:28.365Z,19.96
2022-09-13T17:25:54.989Z,19.91
2022-09-13T17:28:21.858Z,19.70
2022-09-13T17:30:48.470Z,19.58
2022-09-13T17:33:15.008Z,19.27
2022-09-13T17:35:43.670Z,19.30
2022-09-13T17:38:10.333Z,19.01
2022-09-13T17:40:36.902Z,19.00
2022-09-13T17:43:04.054Z,18.97
2022-09-13T17:45:31.229Z,18.99
2022-09-13T17:47:58.969Z,18.90
2022-09-13T17:50:25.574Z,18.74
2022-09-13T17:52:52.210Z,18.63
2022-09-13T17:55:19.178Z,18.59
2022-09-13T17:57:49.832Z,18.50
2022-09-13T18:00:19.733Z,18.48
2022-09-13T18:02:46.720Z,18.49
2022-09-13T18:05:13.963Z,18.60
2022-09-13T18:07:40.639Z,18.55
2022-09-13T18:10:16.198Z,18.33
2022-09-13T18:12:54.145Z,18.45
2022-09-13T18:15:20.842Z,18.32
2022-09-13T18:17:47.420Z,18.18
2022-09-13T18:20:14.029Z,18.21
2022-09-13T18:22:40.584Z,18.11
2022-09-13T18:25:07.790Z,18.03
2022-09-13T18:27:34.329Z,17.90
2022-09-13T18:30:01.331Z,17.95
2022-09-13T18:32:27.849Z,17.82
2022-09-13T18:34:54.442Z,17.88
2022-09-13T18:37:20.981Z,17.71
2022-09-13T18:39:47.961Z,17.81
2022-09-13T18:42:14.565Z,17.71
2022-09-13T18:44:41.313Z,17.87
2022-09-13T18:47:09.069Z,17.81
2022-09-13T18:49:35.589Z,17.72
2022-09-13T18:52:02.530Z,17.95
2022-09-13T18:54:29.644Z,17.77
2022-09-13T18:56:58.196Z,17.67
2022-09-13T18:59:25.612Z,17.78
2022-09-13T19:01:52.852Z,17.83
2022-09-13T19:04:21.359Z,17.98
2022-09-13T19:06:51.346Z,17.89
2022-09-13T19:09:21.115Z,17.80
2022-09-13T19:11:50.655Z,17.80
2022-09-13T19:14:23.371Z,17.78
2022-09-13T19:16:51.351Z,17.80
2022-09-13T19:19:19.552Z,17.69
2022-09-13T19:21:46.659Z,17.59
2022-09-13T19:24:18.699Z,17.62
2022-09-13T19:26:48.013Z,17.73
2022-09-13T19:29:18.056Z,17.50
2022-09-13T19:31:48.438Z,17.48
2022-09-13T19:34:17.462Z,17.49
2022-09-13T19:36:44.434Z,17.40
2022-09-13T19:39:11.761Z,17.20
2022-09-13T19:41:39.287Z,17.26
2022-09-13T19:44:06.020Z,17.13
2022-09-13T19:46:38.484Z,17.29
2022-09-13T19:49:06.547Z,17.13
2022-09-13T19:51:36.202Z,17.31
2022-09-13T19:54:03.923Z,17.27
2022-09-13T19:56:37.330Z,16.97
2022-09-13T19:59:04.161Z,16.94
2022-09-13T20:01:34.065Z,16.94
2022-09-13T20:04:03.589Z,16.93
2022-09-13T20:06:36.435Z,16.99
2022-09-13T20:09:04.229Z,16.98
2022-09-13T20:11:31.567Z,17.02
2022-09-13T20:13:59.382Z,17.00
2022-09-13T20:16:28.747Z,17.04
2022-09-13T20:18:57.303Z,16.92
2022-09-13T20:21:25.288Z,16.96
2022-09-13T20:23:55.540Z,16.90
2022-09-13T20:26:25.692Z,16.85
2022-09-13T20:29:06.003Z,16.87
2022-09-13T20:31:35.994Z,16.87
2022-09-13T20:34:05.781Z,16.85
2022-09-13T20:36:34.084Z,16.88
2022-09-13T20:39:03.752Z,16.76
2022-09-13T20:41:31.618Z,16.73
2022-09-13T20:43:59.794Z,16.79
2022-09-13T20:46:27.334Z,16.65
2022-09-13T20:48:54.057Z,16.74
2022-09-13T20:51:22.335Z,16.79
2022-09-13T20:53:55.880Z,16.77
2022-09-13T20:56:23.517Z,16.81
2022-09-13T20:58:57.049Z,16.77
2022-09-13T21:01:24.849Z,16.80
2022-09-13T21:03:53.854Z,16.78
2022-09-13T21:06:23.332Z,16.68
2022-09-13T21:08:50.891Z,16.70
2022-09-13T21:11:23.042Z,16.53
2022-09-13T21:13:56.063Z,16.48
2022-09-13T21:16:25.894Z,16.42
2022-09-13T21:18:53.762Z,16.35
2022-09-13T21:21:31.362Z,16.59
2022-09-13T21:24:00.497Z,16.31
2022-09-13T21:26:28.817Z,16.42
2022-09-13T21:28:56.908Z,16.45
2022-09-13T21:31:25.703Z,16.51
2022-09-13T21:33:58.318Z,16.44
2022-09-13T21:36:26.790Z,16.38
2022-09-13T21:38:54.441Z,16.33
2022-09-13T21:41:22.553Z,16.33
2022-09-13T21:43:49.223Z,16.38
2022-09-13T21:46:19.775Z,16.17
2022-09-13T21:48:57.894Z,16.07
2022-09-13T21:51:29.095Z,16.16
2022-09-13T21:53:59.190Z,16.00
2022-09-13T21:56:28.146Z,15.98
2022-09-13T21:59:00.678Z,16.08
2022-09-13T22:01:30.378Z,16.09
2022-09-13T22:03:57.627Z,15.97
2022-09-13T22:06:24.977Z,15.96
2022-09-13T22:08:56.827Z,15.93
2022-09-13T22:11:31.385Z,15.85
2022-09-13T22:13:58.823Z,15.80
2022-09-13T22:16:26.681Z,15.79
2022-09-13T22:18:56.182Z,15.85
2022-09-13T22:21:27.312Z,15.77
2022-09-13T22:23:54.401Z,15.78
2022-09-13T22:26:24.019Z,15.80
2022-09-13T22:28:51.545Z,15.85
2022-09-13T22:31:24.378Z,16.00
2022-09-13T22:33:52.043Z,15.85
2022-09-13T22:36:19.627Z,15.81
2022-09-13T22:38:51.904Z,15.97
2022-09-13T22:41:25.282Z,15.72
2022-09-13T22:43:52.547Z,15.73
2022-09-13T22:46:21.036Z,15.64
2022-09-13T22:48:47.735Z,15.76
2022-09-13T22:51:16.392Z,15.64
2022-09-13T22:53:44.721Z,15.57
2022-09-13T22:56:21.900Z,15.73
2022-09-13T22:58:52.588Z,15.51
2022-09-13T23:01:20.076Z,15.49
2022-09-13T23:03:48.353Z,15.49
2022-09-13T23:06:18.946Z,15.40
2022-09-13T23:08:46.882Z,15.43
2022-09-13T23:11:15.726Z,15.33
2022-09-13T23:13:43.342Z,15.29
2022-09-13T23:16:15.856Z,15.24
2022-09-13T23:18:42.685Z,15.23
2022-09-13T23:21:09.250Z,15.18
2022-09-13T23:23:36.267Z,15.09
2022-09-13T23:26:14.575Z,15.19
2022-09-13T23:28:41.177Z,15.10
2022-09-13T23:31:08.758Z,15.17
2022-09-13T23:33:38.377Z,15.09
2022-09-13T23:36:05.781Z,15.11
2022-09-13T23:38:32.394Z,14.96
2022-09-13T23:40:59.111Z,14.94
2022-09-13T23:43:25.722Z,15.02
2022-09-13T23:45:52.220Z,15.05
2022-09-13T23:48:18.946Z,15.13
2022-09-13T23:50:45.755Z,14.82
2022-09-13T23:53:12.282Z,15.06
2022-09-13T23:55:38.828Z,15.07
2022-09-13T23:58:05.596Z,14.99
